Time;durP1;ratioP1;P1;durP2;ratioP2;P2;SDS_P1;SDS_P2;PMS_P1;PMS_P2;Temp;Humidity;BMP_temperature;BMP_pressure;BME280_temperature;BME280_humidity;BME280_pressure;Samples;Min_cycle;Max_cycle;Signal;HPM_P1;HPM_P2
2022/03/31 00:01:03;;;;;;;97.28;45.65;;;;;;;23.46;100.00;98051.81;4846442;29;20057;-67
2022/03/31 00:03:41;;;;;;;108.13;47.40;;;;;;;23.43;100.00;98051.28;4853175;29;20533;-67
2022/03/31 00:06:32;;;;;;;107.22;46.83;;;;;;;23.44;100.00;98056.41;4844565;29;20056;-66
2022/03/31 00:09:14;;;;;;;103.63;47.58;;;;;;;23.38;100.00;98064.03;4871133;29;20140;-67
2022/03/31 00:12:03;;;;;;;94.30;44.40;;;;;;;23.34;100.00;98065.25;4850506;29;20049;-67
2022/03/31 00:14:45;;;;;;;98.53;49.10;;;;;;;23.28;100.00;98056.97;4853248;29;20094;-66
2022/03/31 00:17:41;;;;;;;101.03;48.58;;;;;;;23.29;100.00;98063.06;4853122;29;20065;-66
2022/03/31 00:20:16;;;;;;;93.68;49.15;;;;;;;23.30;100.00;98058.66;4852856;29;20054;-66
2022/03/31 00:23:07;;;;;;;96.63;48.17;;;;;;;23.28;100.00;98061.41;4841118;29;20407;-67
2022/03/31 00:25:49;;;;;;;100.43;50.85;;;;;;;23.26;100.00;98063.34;4855032;29;20045;-67
2022/03/31 00:28:37;;;;;;;107.07;50.30;;;;;;;23.27;100.00;98068.47;4862347;29;20041;-66
2022/03/31 00:31:26;;;;;;;105.07;50.15;;;;;;;23.24;100.00;98073.16;4852542;29;20166;-67
2022/03/31 00:34:15;;;;;;;102.25;50.63;;;;;;;23.15;100.00;98077.44;4861809;29;20400;-66
2022/03/31 00:37:04;;;;;;;109.55;51.67;;;;;;;23.06;100.00;98078.31;4856367;29;20045;-67
2022/03/31 00:39:52;;;;;;;112.30;55.85;;;;;;;23.02;100.00;98079.53;4865632;29;20744;-67
2022/03/31 00:42:35;;;;;;;115.85;53.72;;;;;;;23.15;100.00;98087.97;4862594;29;20065;-66
2022/03/31 00:45:34;;;;;;;133.75;59.85;;;;;;;23.06;100.00;98093.25;4841115;29;20053;-68
2022/03/31 00:48:16;;;;;;;108.85;54.72;;;;;;;23.06;100.00;98091.44;4863271;29;20513;-69
2022/03/31 00:51:11;;;;;;;109.72;56.22;;;;;;;23.11;100.00;98091.84;4864489;29;20057;-69
2022/03/31 00:53:59;;;;;;;101.97;53.88;;;;;;;23.15;100.00;98097.63;4865528;29;20182;-62
2022/03/31 00:56:56;;;;;;;117.32;52.65;;;;;;;23.13;100.00;98089.91;4866436;29;20073;-64
2022/03/31 00:59:31;;;;;;;109.18;53.72;;;;;;;23.13;100.00;98095.19;4865229;29;20121;-64
2022/03/31 01:02:28;;;;;;;103.00;50.72;;;;;;;23.11;100.00;98107.63;4866011;29;20049;-64
2022/03/31 01:05:04;;;;;;;106.68;53.10;;;;;;;23.07;100.00;98102.75;4856124;29;20137;-64
2022/03/31 01:07:53;;;;;;;114.18;53.67;;;;;;;23.07;100.00;98100.97;4854988;29;20551;-63
2022/03/31 01:10:35;;;;;;;97.38;50.05;;;;;;;23.16;100.00;98109.81;4855420;29;20156;-63
2022/03/31 01:13:23;;;;;;;98.63;51.72;;;;;;;23.16;100.00;98115.06;4855842;29;20061;-63
2022/03/31 01:16:06;;;;;;;105.32;52.65;;;;;;;23.15;100.00;98122.13;4856490;29;20058;-63
2022/03/31 01:19:00;;;;;;;110.25;52.08;;;;;;;23.16;100.00;98123.78;4856137;29;20542;-63
2022/03/31 01:21:40;;;;;;;110.63;51.70;;;;;;;23.17;100.00;98120.19;4846709;29;20062;-68
2022/03/31 01:24:34;;;;;;;107.00;52.53;;;;;;;23.25;100.00;98133.47;4834481;29;20061;-69
2022/03/31 01:27:11;;;;;;;102.72;51.50;;;;;;;23.24;100.00;98138.88;4835999;29;20100;-68
2022/03/31 01:30:05;;;;;;;107.90;51.25;;;;;;;23.25;100.00;98138.72;4830239;29;20050;-69
2022/03/31 01:32:42;;;;;;;122.40;53.00;;;;;;;23.28;100.00;98141.09;4834301;29;20573;-69
2022/03/31 01:35:37;;;;;;;123.65;53.83;;;;;;;23.30;100.00;98142.75;4854760;29;20053;-67
2022/03/31 01:38:13;;;;;;;113.90;53.13;;;;;;;23.31;100.00;98139.97;4855887;29;20231;-69
2022/03/31 01:41:02;;;;;;;110.13;52.88;;;;;;;23.39;100.00;98155.03;4866762;29;20500;-69
2022/03/31 01:43:45;;;;;;;123.90;55.33;;;;;;;23.36;100.00;98158.81;4866563;29;20055;-69
2022/03/31 01:46:40;;;;;;;114.70;52.95;;;;;;;23.48;100.00;98159.47;4865640;29;20509;-69
2022/03/31 01:49:15;;;;;;;117.20;53.90;;;;;;;23.56;100.00;98160.47;4837609;29;20057;-68
2022/03/31 01:52:12;;;;;;;117.30;53.93;;;;;;;23.69;100.00;98170.72;4840918;29;20054;-68
2022/03/31 01:55:00;;;;;;;109.85;53.63;;;;;;;23.86;100.00;98177.06;4849105;29;20774;-68
2022/03/31 01:57:49;;;;;;;114.28;55.80;;;;;;;24.10;100.00;98172.16;4862640;29;20092;-68
2022/03/31 02:00:30;;;;;;;133.73;57.50;;;;;;;24.41;100.00;98191.19;4862174;29;20085;-68
2022/03/31 02:03:20;;;;;;;122.72;60.30;;;;;;;24.67;100.00;98200.06;4855677;29;20389;-66
2022/03/31 02:06:02;;;;;;;150.98;70.63;;;;;;;24.87;98.83;98213.16;4858883;29;20084;-67
2022/03/31 02:08:50;;;;;;;177.93;80.40;;;;;;;24.88;86.07;98210.38;4865120;29;20144;-67
2022/03/31 02:11:33;;;;;;;172.10;83.47;;;;;;;25.25;87.11;98206.81;4861462;29;20199;-68
2022/03/31 02:14:23;;;;;;;172.52;81.70;;;;;;;25.61;86.81;98211.16;4864151;29;20812;-68
2022/03/31 02:17:06;;;;;;;193.35;89.18;;;;;;;25.69;87.14;98219.16;4864851;29;20578;-68
2022/03/31 02:19:55;;;;;;;174.25;86.43;;;;;;;25.84;86.71;98220.25;4861658;29;20722;-68
2022/03/31 02:22:37;;;;;;;202.93;89.97;;;;;;;25.94;84.31;98228.09;4849262;29;20057;-69
2022/03/31 02:25:42;;;;;;;213.98;92.78;;;;;;;26.07;84.64;98233.78;4838552;29;20069;-67
2022/03/31 02:28:30;;;;;;;211.57;98.00;;;;;;;25.94;81.89;98236.00;4860497;29;20053;-67
2022/03/31 02:31:18;;;;;;;213.85;95.05;;;;;;;26.01;80.17;98233.56;4860600;29;20063;-67
2022/03/31 02:34:01;;;;;;;208.80;92.13;;;;;;;25.94;79.91;98238.66;4861845;29;20049;-68
2022/03/31 02:36:51;;;;;;;159.65;73.10;;;;;;;25.90;75.32;98242.56;4864825;29;20378;-68
2022/03/31 02:39:32;;;;;;;117.32;56.67;;;;;;;25.91;71.11;98254.78;4857153;29;20056;-68
2022/03/31 02:42:22;;;;;;;107.97;48.03;;;;;;;25.87;72.93;98253.41;4861645;29;20684;-68
2022/03/31 02:45:07;;;;;;;111.03;46.70;;;;;;;25.93;73.64;98247.56;4861545;29;20057;-68
2022/03/31 02:47:57;;;;;;;85.05;41.33;;;;;;;25.96;72.06;98252.50;4865771;29;20064;-68
2022/03/31 02:50:42;;;;;;;98.47;40.47;;;;;;;25.96;72.68;98260.44;4862401;29;20057;-68
2022/03/31 02:56:31;;;;;;;87.50;38.90;;;;;;;25.98;72.49;98274.31;4859911;29;20042;-67
2022/03/31 02:59:25;;;;;;;90.25;36.95;;;;;;;26.07;71.67;98277.84;4854582;29;20140;-68
2022/03/31 03:02:00;;;;;;;84.72;35.97;;;;;;;26.09;72.18;98283.81;4854751;29;20418;-68
2022/03/31 03:04:56;;;;;;;78.70;36.40;;;;;;;26.15;71.19;98276.09;4854269;29;20066;-68
2022/03/31 03:07:31;;;;;;;82.90;35.30;;;;;;;26.31;72.07;98282.50;4854447;29;20289;-68
2022/03/31 03:10:26;;;;;;;92.95;33.55;;;;;;;26.29;67.71;98291.41;4854475;29;20053;-68
2022/03/31 03:13:03;;;;;;;68.30;30.63;;;;;;;26.37;69.83;98289.81;4854453;29;20065;-68
2022/03/31 03:15:58;;;;;;;78.63;31.00;;;;;;;26.43;65.97;98286.53;4855069;29;20057;-68
2022/03/31 03:18:34;;;;;;;65.55;31.15;;;;;;;26.61;70.73;98298.72;4844849;29;20277;-68
2022/03/31 03:21:22;;;;;;;66.63;31.85;;;;;;;26.71;71.33;98287.22;4859582;29;20435;-68
2022/03/31 03:24:11;;;;;;;76.65;29.67;;;;;;;26.71;67.54;98300.41;4856314;29;20049;-69
2022/03/31 03:27:06;;;;;;;72.45;28.25;;;;;;;26.81;66.53;98298.50;4857559;29;20098;-68
2022/03/31 03:29:47;;;;;;;67.05;25.27;;;;;;;26.93;63.84;98303.38;4864451;29;20052;-67
2022/03/31 03:32:50;;;;;;;52.63;21.73;;;;;;;27.02;60.25;98314.81;4858194;29;20060;-67
2022/03/31 03:35:32;;;;;;;66.25;23.17;;;;;;;27.18;58.30;98311.41;4849807;29;20065;-68
2022/03/31 03:38:28;;;;;;;68.78;25.92;;;;;;;27.17;58.04;98315.88;4851637;29;20116;-68
2022/03/31 03:41:03;;;;;;;61.92;25.27;;;;;;;27.30;57.45;98326.81;4848373;29;20150;-68
2022/03/31 03:43:51;;;;;;;63.00;24.38;;;;;;;27.50;61.61;98319.44;4857782;29;20351;-68
2022/03/31 03:46:40;;;;;;;66.80;27.02;;;;;;;27.63;58.31;98329.59;4852293;29;20153;-67
2022/03/31 03:49:35;;;;;;;73.40;28.73;;;;;;;27.72;58.11;98337.41;4863183;29;20054;-68
2022/03/31 03:52:10;;;;;;;54.83;25.77;;;;;;;27.86;57.21;98332.47;4849205;29;20389;-69
2022/03/31 03:55:06;;;;;;;67.80;27.67;;;;;;;28.13;57.05;98337.44;4852474;29;20064;-70
2022/03/31 03:57:41;;;;;;;61.83;27.00;;;;;;;28.27;57.90;98328.84;4844374;29;20064;-70
2022/03/31 04:00:31;;;;;;;64.88;27.92;;;;;;;28.58;57.88;98334.28;4854921;29;20135;-70
2022/03/31 04:03:20;;;;;;;57.90;27.17;;;;;;;28.77;56.03;98339.25;4859183;29;20389;-70
2022/03/31 04:06:02;;;;;;;69.85;29.27;;;;;;;29.10;56.97;98342.66;4844022;29;20085;-70
2022/03/31 04:08:50;;;;;;;59.88;25.98;;;;;;;29.38;58.55;98350.19;4853682;29;20141;-69
2022/03/31 04:11:32;;;;;;;68.03;27.35;;;;;;;29.54;59.79;98348.28;4849320;29;20069;-70
2022/03/31 04:14:23;;;;;;;72.60;28.25;;;;;;;29.75;54.64;98342.38;4852901;29;20057;-69
2022/03/31 04:17:05;;;;;;;80.22;27.67;;;;;;;30.07;51.94;98343.16;4847190;29;20068;-70
2022/03/31 04:19:54;;;;;;;63.33;26.20;;;;;;;30.35;54.29;98349.56;4868903;29;20084;-70
2022/03/31 04:22:43;;;;;;;71.28;26.88;;;;;;;30.63;47.95;98355.19;4855000;29;20084;-70
2022/03/31 04:25:25;;;;;;;64.07;25.30;;;;;;;30.88;46.71;98347.78;4843214;29;20133;-68
2022/03/31 04:28:14;;;;;;;73.13;27.58;;;;;;;31.32;49.51;98364.56;4857808;29;20076;-69
2022/03/31 04:30:56;;;;;;;67.95;28.45;;;;;;;31.50;47.33;98358.88;4857024;29;20060;-69
2022/03/31 04:33:52;;;;;;;82.00;28.70;;;;;;;31.85;49.19;98358.06;4855869;29;20050;-69
2022/03/31 04:36:27;;;;;;;73.45;29.08;;;;;;;32.09;46.01;98359.53;4856324;29;20060;-69
2022/03/31 04:39:16;;;;;;;99.50;36.22;;;;;;;32.04;44.91;98364.59;4857089;29;20158;-69
2022/03/31 04:41:58;;;;;;;89.68;35.75;;;;;;;32.47;45.27;98361.94;4852611;29;20056;-69
2022/03/31 04:44:48;;;;;;;97.47;37.53;;;;;;;32.92;45.27;98364.16;4866482;29;20053;-69
2022/03/31 04:47:31;;;;;;;112.90;42.60;;;;;;;32.73;44.31;98375.50;4857843;29;20045;-68
2022/03/31 04:50:23;;;;;;;91.20;42.55;;;;;;;32.90;45.26;98360.03;4856254;29;20143;-69
2022/03/31 04:53:14;;;;;;;124.10;35.70;;;;;;;33.11;43.96;98367.97;4847372;29;20058;-69
2022/03/31 04:55:56;;;;;;;88.45;31.80;;;;;;;33.57;42.52;98362.84;4855696;29;21052;-69
2022/03/31 04:58:45;;;;;;;72.90;33.47;;;;;;;33.69;45.05;98363.91;4855037;29;20475;-70
2022/03/31 05:01:26;;;;;;;93.47;33.72;;;;;;;33.88;45.45;98370.38;4859474;29;20071;-71
2022/03/31 05:04:16;;;;;;;81.75;34.08;;;;;;;33.92;44.99;98365.47;4854196;29;20064;-70
2022/03/31 05:07:02;;;;;;;103.10;37.45;;;;;;;34.11;43.66;98364.66;4848219;29;20076;-68
2022/03/31 05:09:51;;;;;;;104.53;40.55;;;;;;;34.41;43.70;98368.63;4847747;29;20498;-68
2022/03/31 05:12:32;;;;;;;114.45;38.10;;;;;;;34.53;41.76;98375.03;4868193;29;20145;-70
2022/03/31 05:15:22;;;;;;;98.45;38.65;;;;;;;34.09;42.23;98374.72;4853013;29;20102;-66
2022/03/31 05:18:04;;;;;;;93.57;41.63;;;;;;;34.15;43.20;98377.44;4854018;29;20060;-69
2022/03/31 05:20:53;;;;;;;106.15;39.58;;;;;;;34.34;43.94;98370.47;4858717;29;20050;-68
2022/03/31 05:23:42;;;;;;;109.20;40.20;;;;;;;34.21;42.24;98369.63;4854545;29;20157;-70
2022/03/31 05:26:25;;;;;;;;;;;;;;;34.33;41.58;98368.81;4834487;29;20048;-69
2022/03/31 05:29:13;;;;;;;100.00;40.47;;;;;;;34.16;39.62;98373.72;4858423;29;19939;-70
2022/03/31 05:32:01;;;;;;;89.82;35.45;;;;;;;34.58;43.33;98365.53;4863847;29;20047;-69
2022/03/31 05:34:50;;;;;;;84.68;34.90;;;;;;;34.35;42.61;98364.09;4858540;29;20231;-69
2022/03/31 05:37:33;;;;;;;89.05;33.53;;;;;;;34.38;40.29;98365.56;4865506;29;20069;-69
2022/03/31 05:40:23;;;;;;;75.53;28.20;;;;;;;34.16;38.76;98378.28;4860676;29;20049;-69
2022/03/31 05:43:05;;;;;;;63.20;25.75;;;;;;;34.52;38.87;98373.38;4865588;29;20136;-68
2022/03/31 05:45:55;;;;;;;56.35;20.88;;;;;;;34.33;36.63;98368.81;4860724;29;20060;-69
2022/03/31 05:48:44;;;;;;;50.00;19.13;;;;;;;34.21;39.00;98370.44;4859235;29;20471;-69
2022/03/31 05:51:26;;;;;;;48.58;19.98;;;;;;;34.73;42.06;98364.31;4864250;29;20144;-71
2022/03/31 05:54:21;;;;;;;58.92;19.70;;;;;;;34.25;36.33;98366.34;4868416;29;20159;-69
2022/03/31 05:57:08;;;;;;;54.05;19.38;;;;;;;34.80;41.01;98365.13;4862576;29;20061;-68
2022/03/31 05:59:58;;;;;;;46.47;19.73;;;;;;;34.72;38.05;98359.16;4868954;29;20061;-70
2022/03/31 06:02:48;;;;;;;49.42;19.58;;;;;;;34.45;38.07;98351.13;4859460;29;20129;-66
2022/03/31 06:05:42;;;;;;;62.10;20.90;;;;;;;34.50;38.29;98354.00;4851607;29;20100;-65
2022/03/31 06:08:30;;;;;;;44.72;18.95;;;;;;;34.52;40.28;98354.63;4839265;29;20042;-67
2022/03/31 06:11:19;;;;;;;55.33;21.50;;;;;;;34.38;39.64;98350.31;4852029;29;20386;-68
2022/03/31 06:14:01;;;;;;;55.80;21.05;;;;;;;34.55;37.10;98356.91;4863242;29;20076;-68
2022/03/31 06:16:50;;;;;;;52.25;19.30;;;;;;;34.51;37.50;98355.66;4848016;29;20049;-69
2022/03/31 06:19:32;;;;;;;57.30;19.55;;;;;;;34.76;39.09;98347.03;4857048;29;20041;-69
2022/03/31 06:22:21;;;;;;;52.60;19.75;;;;;;;34.51;38.27;98350.31;4860664;29;20049;-68
2022/03/31 06:25:03;;;;;;;53.42;18.10;;;;;;;34.75;39.74;98346.19;4854289;29;20060;-68
2022/03/31 06:27:53;;;;;;;50.78;18.67;;;;;;;34.69;35.78;98354.22;4859216;29;20050;-69
2022/03/31 06:30:34;;;;;;;45.60;18.85;;;;;;;34.58;36.57;98347.63;4860592;29;20152;-68
2022/03/31 06:33:25;;;;;;;41.70;17.75;;;;;;;34.80;38.08;98350.94;4862885;29;20063;-68
2022/03/31 06:36:07;;;;;;;49.55;19.15;;;;;;;34.89;42.05;98330.91;4856821;29;20049;-68
2022/03/31 06:38:57;;;;;;;64.82;20.25;;;;;;;35.01;36.94;98337.28;4859207;29;20713;-68
2022/03/31 06:41:39;;;;;;;48.22;17.90;;;;;;;35.03;36.72;98340.59;4857893;29;20045;-68
2022/03/31 06:44:28;;;;;;;49.88;17.58;;;;;;;34.82;37.15;98332.78;4862817;29;20065;-70
2022/03/31 06:47:10;;;;;;;55.95;19.40;;;;;;;34.66;38.40;98319.81;4848902;29;20053;-70
2022/03/31 06:49:59;;;;;;;59.50;20.50;;;;;;;34.56;35.27;98325.63;4859970;29;20060;-69
2022/03/31 06:52:40;;;;;;;57.00;23.17;;;;;;;34.31;38.14;98317.41;4861240;29;20570;-71
2022/03/31 06:55:30;;;;;;;66.75;23.00;;;;;;;34.46;38.15;98322.53;4863895;29;20057;-70
2022/03/31 06:58:12;;;;;;;59.47;23.75;;;;;;;34.37;38.58;98316.56;4853868;29;20053;-69
2022/03/31 07:01:00;;;;;;;59.40;22.40;;;;;;;34.51;37.85;98318.19;4862984;29;20153;-70
2022/03/31 07:03:49;;;;;;;51.55;19.13;;;;;;;34.27;35.61;98312.66;4861812;29;20063;-69
2022/03/31 07:06:31;;;;;;;53.55;18.95;;;;;;;34.38;38.37;98307.50;4858809;29;20061;-69
2022/03/31 07:09:19;;;;;;;48.80;15.27;;;;;;;34.41;34.68;98309.75;4854024;29;20140;-69
2022/03/31 07:12:08;;;;;;;41.15;13.88;;;;;;;34.50;34.59;98307.69;4854844;29;20439;-69
2022/03/31 07:14:50;;;;;;;45.08;13.18;;;;;;;34.47;33.06;98305.44;4859878;29;20050;-69
2022/03/31 07:17:39;;;;;;;45.72;13.23;;;;;;;34.55;33.72;98308.72;4860764;29;20053;-68
2022/03/31 07:20:22;;;;;;;41.20;13.85;;;;;;;34.75;39.23;98297.19;4862105;29;20046;-69
2022/03/31 07:23:12;;;;;;;32.22;11.73;;;;;;;34.61;33.60;98298.22;4862028;29;20060;-69
2022/03/31 07:26:01;;;;;;;43.00;14.60;;;;;;;34.47;34.49;98292.06;4857452;29;20080;-70
2022/03/31 07:28:50;;;;;;;49.20;14.95;;;;;;;34.56;34.50;98288.94;4857373;29;20045;-69
2022/03/31 07:31:32;;;;;;;45.28;15.55;;;;;;;34.70;35.17;98276.38;4858416;29;20052;-69
2022/03/31 07:34:21;;;;;;;41.50;14.82;;;;;;;34.78;35.56;98280.72;4860018;29;20541;-67
2022/03/31 07:37:10;;;;;;;35.67;14.63;;;;;;;34.51;34.25;98274.53;4858831;29;20640;-69
2022/03/31 07:39:56;;;;;;;42.78;13.88;;;;;;;34.47;34.11;98271.47;4862898;29;20376;-69
2022/03/31 07:42:56;;;;;;;36.85;14.40;;;;;;;34.68;36.90;98272.25;4862513;29;20061;-72
2022/03/31 07:45:36;;;;;;;41.40;14.00;;;;;;;34.74;34.29;98274.13;4863931;29;20053;-74
2022/03/31 07:48:32;;;;;;;36.92;12.55;;;;;;;34.87;35.35;98263.38;4860609;29;20211;-72
2022/03/31 07:51:08;;;;;;;46.28;14.23;;;;;;;34.89;36.77;98266.66;4851684;29;20430;-70
2022/03/31 07:54:03;;;;;;;32.10;13.52;;;;;;;34.92;37.06;98268.91;4853753;29;20060;-71
2022/03/31 07:56:38;;;;;;;37.97;14.20;;;;;;;34.74;36.04;98263.41;4856139;29;20065;-70
2022/03/31 07:59:33;;;;;;;48.13;14.68;;;;;;;34.63;34.71;98256.84;4852853;29;20049;-70
2022/03/31 08:02:10;;;;;;;36.45;12.73;;;;;;;34.46;34.69;98259.13;4854312;29;20041;-71
2022/03/31 08:05:11;;;;;;;42.50;13.63;;;;;;;34.49;37.88;98255.19;4846228;29;20068;-71
2022/03/31 08:07:50;;;;;;;51.30;12.80;;;;;;;34.45;35.82;98252.13;4866367;29;20067;-71
2022/03/31 08:10:46;;;;;;;47.20;12.48;;;;;;;34.37;36.78;98247.00;4857377;29;20104;-70
2022/03/31 08:13:28;;;;;;;30.65;10.30;;;;;;;34.24;34.19;98251.56;4851422;29;20045;-70
2022/03/31 08:16:17;;;;;;;45.05;10.43;;;;;;;34.22;35.14;98251.72;4860579;29;20053;-70
2022/03/31 08:18:59;;;;;;;31.08;10.77;;;;;;;34.40;35.46;98235.84;4854074;29;20072;-72
2022/03/31 08:21:56;;;;;;;37.25;11.23;;;;;;;34.53;37.02;98235.84;4853159;29;20306;-70
2022/03/31 08:24:31;;;;;;;31.48;9.07;;;;;;;34.39;35.39;98236.09;4852709;29;20061;-70
2022/03/31 08:27:20;;;;;;;29.55;9.32;;;;;;;34.49;38.37;98228.44;4851711;29;20082;-70
2022/03/31 08:30:19;;;;;;;38.78;9.88;;;;;;;34.43;35.69;98231.94;4862248;29;20088;-70
2022/03/31 08:33:15;;;;;;;32.88;9.50;;;;;;;34.39;34.82;98220.88;4852866;29;20189;-67
2022/03/31 08:35:51;;;;;;;38.67;9.45;;;;;;;34.45;35.18;98217.34;4856460;29;20125;-71
2022/03/31 08:38:46;;;;;;;33.13;8.43;;;;;;;34.47;34.17;98219.81;4845497;29;20056;-71
2022/03/31 08:41:27;;;;;;;30.58;9.55;;;;;;;34.36;33.42;98217.78;4847286;29;20256;-70
2022/03/31 08:44:27;;;;;;;32.20;9.50;;;;;;;34.36;34.70;98210.56;4851652;29;20502;-70
2022/03/31 08:47:02;;;;;;;26.27;8.82;;;;;;;34.30;33.56;98208.72;4846616;29;20064;-70
2022/03/31 08:50:07;;;;;;;26.80;9.43;;;;;;;34.27;32.73;98208.31;4852333;29;20057;-70
2022/03/31 08:52:57;;;;;;;30.77;10.23;;;;;;;34.19;33.61;98198.63;4857910;29;20045;-70
2022/03/31 08:55:53;;;;;;;25.23;9.75;;;;;;;34.15;35.46;98195.56;4856578;29;20054;-70
2022/03/31 08:58:28;;;;;;;30.13;9.70;;;;;;;34.23;34.15;98199.91;4858647;29;20121;-70
2022/03/31 09:01:24;;;;;;;27.58;8.63;;;;;;;34.14;34.75;98198.44;4862420;29;20159;-69
2022/03/31 09:03:59;;;;;;;32.65;8.95;;;;;;;34.11;33.23;98193.50;4855906;29;20067;-70
2022/03/31 09:07:07;;;;;;;30.63;8.15;;;;;;;34.14;34.21;98193.09;4861897;29;20113;-70
2022/03/31 09:09:53;;;;;;;;;;;;;;;34.18;35.22;98179.06;4864120;29;20053;-69
2022/03/31 09:12:42;;;;;;;35.33;9.77;;;;;;;34.15;35.23;98181.38;4865427;29;19928;-69
2022/03/31 09:15:43;;;;;;;39.55;10.27;;;;;;;34.11;33.45;98185.47;4865696;29;20076;-70
2022/03/31 09:18:34;;;;;;;27.23;9.13;;;;;;;34.09;33.55;98185.69;4864335;29;20045;-70
2022/03/31 09:21:22;;;;;;;23.23;7.97;;;;;;;34.06;34.07;98174.59;4863074;29;20041;-69
2022/03/31 09:24:16;;;;;;;31.08;8.50;;;;;;;33.99;31.96;98179.13;4860324;29;20053;-69
2022/03/31 09:26:59;;;;;;;26.00;7.90;;;;;;;33.95;32.67;98172.53;4865966;29;20095;-69
2022/03/31 09:29:49;;;;;;;25.23;7.13;;;;;;;33.87;33.50;98170.06;4857557;29;20057;-68
2022/03/31 09:32:31;;;;;;;39.80;9.75;;;;;;;33.79;33.33;98157.75;4852638;29;20068;-70
2022/03/31 09:35:24;;;;;;;20.33;7.95;;;;;;;33.68;33.30;98159.16;4861582;29;20049;-69
2022/03/31 09:38:20;;;;;;;19.17;7.28;;;;;;;33.66;34.29;98163.06;4866052;29;20333;-69
2022/03/31 09:41:03;;;;;;;36.17;8.00;;;;;;;33.61;33.74;98154.81;4863456;29;20054;-69
2022/03/31 09:43:53;;;;;;;27.70;7.82;;;;;;;33.59;32.22;98147.03;4866872;29;20054;-68
2022/03/31 09:46:38;;;;;;;29.27;7.88;;;;;;;33.52;31.87;98156.91;4865872;29;20112;-68
2022/03/31 09:49:34;;;;;;;24.67;6.95;;;;;;;33.38;35.12;98145.38;4863959;29;20061;-69
2022/03/31 09:52:16;;;;;;;28.45;7.85;;;;;;;33.21;33.58;98135.28;4867703;29;20053;-69
2022/03/31 09:55:07;;;;;;;35.20;8.18;;;;;;;33.16;34.62;98135.84;4861797;29;20056;-70
2022/03/31 09:57:57;;;;;;;30.33;7.47;;;;;;;33.24;30.53;98137.53;4854604;29;20085;-69
2022/03/31 10:00:39;;;;;;;22.92;7.43;;;;;;;33.20;32.12;98130.94;4856057;29;20049;-70
2022/03/31 10:03:28;;;;;;;18.50;7.10;;;;;;;33.15;32.76;98128.03;4853333;29;21108;-69
2022/03/31 10:06:21;;;;;;;22.95;7.25;;;;;;;33.15;32.41;98125.38;4853373;29;20078;-69
2022/03/31 10:09:12;;;;;;;31.60;7.75;;;;;;;33.21;32.39;98127.25;4860755;29;20048;-68
2022/03/31 10:12:03;;;;;;;28.15;8.13;;;;;;;33.15;33.47;98123.53;4854428;29;20065;-69
2022/03/31 10:15:00;;;;;;;25.05;7.13;;;;;;;33.15;31.40;98112.03;4864810;29;20068;-69
2022/03/31 10:18:05;;;;;;;25.33;7.80;;;;;;;33.21;30.24;98117.41;4859710;29;20044;-69
2022/03/31 10:20:59;;;;;;;27.38;7.32;;;;;;;33.28;28.33;98120.94;4851022;29;20044;-69
2022/03/31 10:27:01;;;;;;;27.88;6.60;;;;;;;33.42;27.83;98114.56;4858575;29;20073;-70
2022/03/31 10:29:51;;;;;;;30.13;6.53;;;;;;;33.44;28.11;98103.69;4856365;29;20057;-70
2022/03/31 10:32:33;;;;;;;;;;;;;;;33.47;28.44;98108.59;4856413;29;20088;-70
2022/03/31 10:35:35;;;;;;;17.33;5.55;;;;;;;33.33;25.96;98106.94;4853281;29;20248;-70
2022/03/31 10:38:24;;;;;;;19.52;5.90;;;;;;;33.39;26.58;98104.28;4856841;29;20824;-70
2022/03/31 10:41:13;;;;;;;21.77;5.47;;;;;;;33.31;24.48;98109.00;4857352;29;20057;-69
2022/03/31 10:44:17;;;;;;;20.98;5.20;;;;;;;33.37;25.16;98106.31;4855802;29;20049;-70
2022/03/31 10:47:11;;;;;;;25.45;5.93;;;;;;;33.31;25.51;98095.63;4855564;29;20481;-70
2022/03/31 10:50:00;;;;;;;26.10;6.78;;;;;;;33.35;26.46;98097.72;4856947;29;20069;-70
2022/03/31 10:52:42;;;;;;;20.77;5.97;;;;;;;33.28;27.67;98090.72;4856642;29;20052;-69
2022/03/31 10:55:55;;;;;;;33.72;6.90;;;;;;;33.26;27.55;98090.09;4860080;29;20057;-69
2022/03/31 10:58:48;;;;;;;23.00;6.43;;;;;;;33.20;26.49;98093.56;4858957;29;20060;-70
2022/03/31 11:01:42;;;;;;;21.92;5.90;;;;;;;33.15;25.15;98090.66;4861427;29;20049;-70
2022/03/31 11:04:24;;;;;;;22.30;6.22;;;;;;;33.14;23.48;98091.69;4862811;29;20041;-70
2022/03/31 11:07:20;;;;;;;21.30;5.00;;;;;;;33.09;25.41;98080.81;4859520;29;20065;-68
2022/03/31 11:10:06;;;;;;;17.15;5.80;;;;;;;33.09;25.52;98086.16;4851402;29;20050;-68
2022/03/31 11:12:56;;;;;;;19.85;5.43;;;;;;;33.05;26.83;98078.53;4851310;29;20057;-69
2022/03/31 11:15:38;;;;;;;18.50;5.88;;;;;;;33.07;27.06;98083.66;4861462;29;20129;-69
2022/03/31 11:18:28;;;;;;;21.02;5.43;;;;;;;32.98;27.86;98080.38;4857201;29;20057;-69
2022/03/31 11:21:10;;;;;;;25.60;5.68;;;;;;;32.83;27.87;98077.06;4860305;29;20581;-68
2022/03/31 11:23:59;;;;;;;18.90;5.68;;;;;;;32.75;27.41;98084.44;4856193;29;20068;-69
2022/03/31 11:26:48;;;;;;;23.00;5.35;;;;;;;32.58;27.36;98078.59;4863474;29;20057;-69
2022/03/31 11:29:37;;;;;;;22.30;6.50;;;;;;;32.46;28.13;98083.72;4859545;29;20121;-68
2022/03/31 11:32:29;;;;;;;14.75;5.90;;;;;;;32.41;25.59;98082.66;4855190;29;20057;-69
2022/03/31 11:35:21;;;;;;;19.80;6.43;;;;;;;32.30;29.46;98084.06;4851272;29;20057;-69
2022/03/31 11:38:12;;;;;;;25.63;5.38;;;;;;;32.06;28.24;98080.00;4847175;29;20064;-68
2022/03/31 11:41:02;;;;;;;22.52;5.28;;;;;;;31.82;28.85;98077.81;4851952;29;20441;-68
2022/03/31 11:43:44;;;;;;;24.42;5.63;;;;;;;31.82;26.42;98088.47;4852329;29;20050;-67
2022/03/31 11:46:48;;;;;;;20.92;5.18;;;;;;;31.81;26.21;98086.81;4853495;29;20126;-68
2022/03/31 11:49:40;;;;;;;20.85;6.25;;;;;;;31.78;26.62;98076.53;4855994;29;20469;-68
2022/03/31 11:52:36;;;;;;;19.00;4.85;;;;;;;31.34;31.85;98085.63;4850315;29;20130;-67
2022/03/31 11:55:20;;;;;;;16.08;6.60;;;;;;;31.28;27.81;98086.41;4869612;29;20516;-68
2022/03/31 11:58:09;;;;;;;21.27;5.10;;;;;;;31.33;27.87;98089.31;4865390;29;20051;-67
2022/03/31 12:00:51;;;;;;;17.48;4.68;;;;;;;31.37;28.51;98089.75;4872096;29;20115;-68
2022/03/31 12:03:44;;;;;;;23.58;5.13;;;;;;;31.26;27.61;98083.09;4872146;29;20060;-69
2022/03/31 12:06:33;;;;;;;20.25;4.95;;;;;;;31.17;27.52;98093.06;4873754;29;20056;-69
2022/03/31 12:09:15;;;;;;;23.05;4.80;;;;;;;31.22;26.88;98086.31;4870248;29;20159;-69
2022/03/31 12:12:12;;;;;;;19.20;4.88;;;;;;;31.19;26.03;98084.91;4873853;29;20060;-69
2022/03/31 12:14:57;;;;;;;22.63;5.22;;;;;;;31.13;30.91;98093.66;4869599;29;20077;-68
2022/03/31 12:18:06;;;;;;;22.83;5.57;;;;;;;31.00;28.85;98090.81;4873581;29;20056;-68
2022/03/31 12:21:06;;;;;;;16.90;5.05;;;;;;;30.57;35.66;98080.13;4871461;29;20053;-69
2022/03/31 12:23:48;;;;;;;28.58;5.30;;;;;;;30.23;37.09;98088.69;4869185;29;20525;-69
2022/03/31 12:26:59;;;;;;;17.67;5.40;;;;;;;29.89;38.27;98078.59;4869428;29;20084;-68
2022/03/31 12:29:40;;;;;;;19.63;5.50;;;;;;;29.66;40.10;98081.31;4867022;29;20108;-68
2022/03/31 12:32:35;;;;;;;22.23;6.13;;;;;;;29.54;39.64;98081.94;4868803;29;20059;-69
2022/03/31 12:35:31;;;;;;;26.48;5.85;;;;;;;29.36;40.82;98076.16;4865122;29;20053;-68
2022/03/31 12:38:13;;;;;;;18.13;5.80;;;;;;;29.44;34.91;98078.72;4869535;29;20407;-68
2022/03/31 12:41:02;;;;;;;22.92;6.82;;;;;;;29.42;38.10;98075.41;4868782;29;20109;-68
2022/03/31 12:43:44;;;;;;;26.45;5.75;;;;;;;29.35;37.99;98080.63;4871316;29;20040;-69
2022/03/31 12:46:45;;;;;;;20.88;6.20;;;;;;;29.45;33.14;98088.34;4872621;29;20067;-68
2022/03/31 12:49:33;;;;;;;21.20;6.28;;;;;;;29.72;31.03;98086.91;4850857;29;20045;-69
2022/03/31 12:52:22;;;;;;;30.40;6.90;;;;;;;29.67;31.39;98088.28;4858404;29;20053;-68
2022/03/31 12:55:11;;;;;;;42.40;9.15;;;;;;;29.69;30.43;98093.44;4859419;29;20054;-68
2022/03/31 12:58:06;;;;;;;28.02;8.68;;;;;;;29.72;31.10;98093.03;4860528;29;20056;-68